createdAt,value
2023-03-10T00:04:57.976Z,6.86
2023-03-10T00:10:22.544Z,6.02
2023-03-10T00:15:46.494Z,5.42
2023-03-10T00:21:16.055Z,6.11
2023-03-10T00:26:41.454Z,8.63
2023-03-10T00:32:06.757Z,9.90
2023-03-10T00:37:36.183Z,10.53
2023-03-10T00:43:00.538Z,10.99
2023-03-10T00:48:24.850Z,11.28
2023-03-10T00:53:49.535Z,11.54
2023-03-10T00:59:15.307Z,11.72
2023-03-10T01:04:39.612Z,11.90
2023-03-10T01:10:03.912Z,12.04
2023-03-10T01:15:28.222Z,12.24
2023-03-10T01:20:52.323Z,12.36
2023-03-10T01:26:18.586Z,12.44
2023-03-10T01:31:44.275Z,12.63
2023-03-10T01:37:08.890Z,12.80
2023-03-10T01:42:32.893Z,12.94
2023-03-10T01:47:57.661Z,13.18
2023-03-10T01:53:22.968Z,13.40
2023-03-10T01:58:47.875Z,13.44
2023-03-10T02:04:23.801Z,13.35
2023-03-10T02:09:49.947Z,13.36
2023-03-10T02:15:14.441Z,13.52
2023-03-10T02:21:10.287Z,13.76
2023-03-10T02:27:11.928Z,13.00
2023-03-10T02:32:41.611Z,10.84
2023-03-10T02:38:07.503Z,9.49
2023-03-10T02:43:35.237Z,8.54
2023-03-10T02:49:07.796Z,7.83
2023-03-10T02:54:35.597Z,8.47
2023-03-10T02:59:59.933Z,10.71
2023-03-10T03:05:24.937Z,11.80
2023-03-10T03:10:51.175Z,12.48
2023-03-10T03:16:16.049Z,13.06
2023-03-10T03:21:41.573Z,13.45
2023-03-10T03:27:06.457Z,13.66
2023-03-10T03:32:31.671Z,13.85
2023-03-10T03:37:56.583Z,13.27
2023-03-10T03:43:22.459Z,11.24
2023-03-10T03:48:46.776Z,9.82
2023-03-10T03:54:11.119Z,8.79
2023-03-10T03:59:36.390Z,9.23
2023-03-10T04:05:01.125Z,11.37
2023-03-10T04:10:27.348Z,12.42
2023-03-10T04:16:00.113Z,13.02
2023-03-10T04:21:30.049Z,13.44
2023-03-10T04:26:55.062Z,13.81
2023-03-10T04:32:20.105Z,14.05
2023-03-10T04:37:45.109Z,14.24
2023-03-10T04:43:09.845Z,13.67
2023-03-10T04:48:36.521Z,11.59
2023-03-10T04:54:01.452Z,10.21
2023-03-10T04:59:28.284Z,9.29
2023-03-10T05:04:53.702Z,9.83
2023-03-10T05:10:18.233Z,12.03
2023-03-10T05:15:43.464Z,13.06
2023-03-10T05:21:08.691Z,13.61
2023-03-10T05:26:34.922Z,14.00
2023-03-10T05:32:00.220Z,14.38
2023-03-10T05:37:29.501Z,14.51
2023-03-10T05:42:53.672Z,14.47
2023-03-10T05:48:17.797Z,14.40
2023-03-10T05:53:44.030Z,14.45
2023-03-10T05:59:12.515Z,14.50
2023-03-10T06:04:37.382Z,13.87
2023-03-10T06:10:01.856Z,11.91
2023-03-10T06:15:26.342Z,10.55
2023-03-10T06:20:54.102Z,10.73
2023-03-10T06:26:19.618Z,12.67
2023-03-10T06:31:44.509Z,13.48
2023-03-10T06:37:08.881Z,13.98
2023-03-10T06:42:35.268Z,14.43
2023-03-10T06:47:59.382Z,14.64
2023-03-10T06:53:27.877Z,14.85
2023-03-10T06:58:53.101Z,14.10
2023-03-10T07:04:17.317Z,12.15
2023-03-10T07:09:41.902Z,12.08
2023-03-10T07:15:06.725Z,13.38
2023-03-10T07:20:31.065Z,14.06
2023-03-10T07:25:57.740Z,14.25
2023-03-10T07:31:24.041Z,14.34
2023-03-10T07:36:48.542Z,14.38
2023-03-10T07:42:12.900Z,14.48
2023-03-10T07:47:37.219Z,14.28
2023-03-10T07:53:01.733Z,14.01
2023-03-10T07:58:26.459Z,13.93
2023-03-10T08:03:52.056Z,14.04
2023-03-10T08:09:16.661Z,14.10
2023-03-10T08:14:41.450Z,14.14
2023-03-10T08:20:07.022Z,14.19
2023-03-10T08:25:31.363Z,14.15
2023-03-10T08:31:04.073Z,14.38
2023-03-10T08:36:32.341Z,14.60
2023-03-10T08:41:56.906Z,14.75
2023-03-10T08:47:21.458Z,14.36
2023-03-10T08:52:45.901Z,13.22
2023-03-10T08:58:09.997Z,14.29
2023-03-10T09:03:43.278Z,14.90
2023-03-10T09:09:10.777Z,13.73
2023-03-10T09:14:36.092Z,13.75
2023-03-10T09:20:00.101Z,14.63
2023-03-10T09:25:24.577Z,14.56
2023-03-10T09:30:48.642Z,13.57
2023-03-10T09:36:12.815Z,14.67
2023-03-10T09:42:26.016Z,14.17
2023-03-10T09:47:59.613Z,13.88
2023-03-10T09:53:45.222Z,14.63
2023-03-10T09:59:36.243Z,13.52
2023-03-10T10:05:07.488Z,14.74
2023-03-10T10:10:36.922Z,15.15
2023-03-10T10:16:32.042Z,13.92
2023-03-10T10:22:07.457Z,14.93
2023-03-10T10:27:32.547Z,15.27
2023-03-10T10:32:59.510Z,14.09
2023-03-10T10:38:30.513Z,14.21
2023-03-10T10:43:59.617Z,14.77
2023-03-10T10:49:32.084Z,13.67
2023-03-10T10:54:59.494Z,14.87
2023-03-10T11:00:30.145Z,15.06
2023-03-10T11:05:56.418Z,14.24
2023-03-10T11:11:44.369Z,14.48
2023-03-10T11:17:50.104Z,15.48
2023-03-10T11:23:32.572Z,14.42
2023-03-10T11:29:34.895Z,13.84
2023-03-10T11:35:00.979Z,14.74
2023-03-10T11:40:49.497Z,14.94
2023-03-10T11:46:25.302Z,14.08
2023-03-10T11:51:59.001Z,13.77
2023-03-10T11:57:28.705Z,15.23
2023-03-10T12:02:55.706Z,15.14
2023-03-10T12:08:23.152Z,14.48
2023-03-10T12:13:52.658Z,14.11
2023-03-10T12:19:16.861Z,13.93
2023-03-10T12:24:48.454Z,14.93
2023-03-10T12:30:48.752Z,16.13
2023-03-10T12:36:34.161Z,15.47
2023-03-10T12:42:04.108Z,15.29
2023-03-10T12:47:45.584Z,15.21
2023-03-10T12:53:23.242Z,14.99
2023-03-10T12:58:55.328Z,14.75
2023-03-10T13:04:23.441Z,14.65
2023-03-10T13:09:50.543Z,14.62
2023-03-10T13:15:29.979Z,14.70
2023-03-10T13:20:54.215Z,14.67
2023-03-10T13:26:18.377Z,14.57
2023-03-10T13:31:53.094Z,14.41
2023-03-10T13:37:18.467Z,14.42
2023-03-10T13:42:44.659Z,14.57
2023-03-10T13:48:14.091Z,14.52
2023-03-10T13:53:38.020Z,14.38
2023-03-10T13:59:03.909Z,14.26
2023-03-10T14:04:55.349Z,14.21
2023-03-10T14:10:21.510Z,14.18
2023-03-10T14:15:55.368Z,14.15
2023-03-10T14:21:39.176Z,14.05
2023-03-10T14:27:03.076Z,14.02
2023-03-10T14:32:27.807Z,14.05
2023-03-10T14:37:53.453Z,14.00
2023-03-10T14:43:22.932Z,13.88
2023-03-10T14:48:47.607Z,13.76
2023-03-10T14:54:31.937Z,13.69
2023-03-10T14:59:56.178Z,13.63
2023-03-10T15:05:23.677Z,13.61
2023-03-10T15:11:06.542Z,13.58
2023-03-10T15:33:34.252Z,13.43
2023-03-10T15:39:03.875Z,13.35
2023-03-10T15:45:03.630Z,13.27
2023-03-10T15:51:28.554Z,13.16
2023-03-10T15:56:58.248Z,13.04
2023-03-10T16:02:22.950Z,12.95
2023-03-10T16:07:49.423Z,12.83
2023-03-10T16:13:14.595Z,12.73
2023-03-10T16:18:40.519Z,12.64
2023-03-10T16:24:05.861Z,12.57
2023-03-10T16:29:30.639Z,12.50
2023-03-10T16:34:57.247Z,13.63
2023-03-10T16:40:21.676Z,15.04
2023-03-10T16:45:49.070Z,14.09
2023-03-10T16:51:28.155Z,12.64
2023-03-10T16:56:57.495Z,13.40
2023-03-10T17:02:26.077Z,14.05
2023-03-10T17:07:56.083Z,14.30
2023-03-10T17:13:21.369Z,14.75
2023-03-10T17:18:46.252Z,15.16
2023-03-10T17:24:11.188Z,15.23
2023-03-10T17:29:36.140Z,13.66
2023-03-10T17:35:00.491Z,12.44
2023-03-10T17:40:24.518Z,13.21
2023-03-10T17:45:58.885Z,13.46
2023-03-10T17:51:29.806Z,13.70
2023-03-10T17:56:54.173Z,13.79
2023-03-10T18:02:18.477Z,13.78
2023-03-10T18:07:42.936Z,13.81
2023-03-10T18:13:10.430Z,13.98
2023-03-10T18:18:34.863Z,13.20
2023-03-10T18:23:59.760Z,11.30
2023-03-10T18:29:24.109Z,11.11
2023-03-10T18:34:48.354Z,12.44
2023-03-10T18:40:16.328Z,12.86
2023-03-10T18:45:41.273Z,13.02
2023-03-10T18:51:06.562Z,13.22
2023-03-10T18:56:31.811Z,13.31
2023-03-10T19:01:56.028Z,13.40
2023-03-10T19:07:20.961Z,13.56
2023-03-10T19:12:45.247Z,13.72
2023-03-10T19:18:09.787Z,13.08
2023-03-10T19:23:35.453Z,11.13
2023-03-10T19:29:00.600Z,9.78
2023-03-10T19:34:26.286Z,9.79
2023-03-10T19:39:51.070Z,11.55
2023-03-10T19:45:18.206Z,12.19
2023-03-10T19:50:42.738Z,12.55
2023-03-10T19:56:08.234Z,12.62
2023-03-10T20:01:32.952Z,12.58
2023-03-10T20:06:57.494Z,12.50
2023-03-10T20:12:21.978Z,12.46
2023-03-10T20:17:46.900Z,12.60
2023-03-10T20:23:11.456Z,12.70
2023-03-10T20:28:37.456Z,12.67
2023-03-10T20:34:04.421Z,12.56
2023-03-10T20:39:28.387Z,12.68
2023-03-10T20:44:52.735Z,12.85
2023-03-10T20:50:18.064Z,13.02
2023-03-10T20:55:42.906Z,12.63
2023-03-10T21:01:07.556Z,10.77
2023-03-10T21:06:32.665Z,10.45
2023-03-10T21:11:57.070Z,11.91
2023-03-10T21:17:21.481Z,12.48
2023-03-10T21:22:46.790Z,12.61
2023-03-10T21:28:10.746Z,12.77
2023-03-10T21:33:35.733Z,12.76
2023-03-10T21:39:00.353Z,12.71
2023-03-10T21:44:24.451Z,12.60
2023-03-10T21:49:49.268Z,12.64
2023-03-10T21:55:18.772Z,12.73
2023-03-10T22:00:43.170Z,12.75
2023-03-10T22:06:08.846Z,12.69
2023-03-10T22:11:33.656Z,12.76
2023-03-10T22:16:57.971Z,12.79
2023-03-10T22:22:23.435Z,12.75
2023-03-10T22:27:54.132Z,12.75
2023-03-10T22:33:18.560Z,12.81
2023-03-10T22:38:43.509Z,12.67
2023-03-10T22:44:08.163Z,12.67
2023-03-10T22:49:33.427Z,12.71
2023-03-10T22:54:59.886Z,12.67
2023-03-10T23:00:24.570Z,12.66
2023-03-10T23:05:48.542Z,12.67
2023-03-10T23:11:14.612Z,12.39
2023-03-10T23:16:39.130Z,12.10
2023-03-10T23:22:04.126Z,11.87
2023-03-10T23:27:28.061Z,11.90
2023-03-10T23:32:53.800Z,11.91
2023-03-10T23:38:18.480Z,11.93
2023-03-10T23:43:43.799Z,11.71
2023-03-10T23:49:09.121Z,11.25
2023-03-10T23:54:33.008Z,11.02
2023-03-10T23:59:57.835Z,10.62
